TimeEDT,TemperatureF,Dew PointF,Humidity,Sea Level PressureIn,VisibilityMPH,Wind Direction,Wind SpeedMPH,Gust SpeedMPH,PrecipitationIn,Events,Conditions,WindDirDegrees,DateUTC
12:56 AM,75.9,70.0,82,29.85,9.0,Calm,Calm,-,N/A,,Overcast,0,2013-07-01 04:56:00
1:07 AM,75.2,69.8,83,29.85,9.0,East,4.6,-,N/A,Thunderstorm,Thunderstorm,80,2013-07-01 05:07:00
1:27 AM,75.2,71.6,89,29.87,0.8,WNW,8.1,-,0.00,Rain-Thunderstorm,Heavy Thunderstorms and Rain,290,2013-07-01 05:27:00
1:37 AM,73.4,71.6,94,29.86,3.0,NW,5.8,-,0.17,Rain-Thunderstorm,Light Thunderstorms and Rain,320,2013-07-01 05:37:00
1:56 AM,73.0,66.9,81,29.86,7.0,Calm,Calm,-,0.17,Rain-Thunderstorm,Light Thunderstorms and Rain,0,2013-07-01 05:56:00
2:20 AM,73.4,69.8,88,29.85,10.0,East,3.5,-,0.00,,Mostly Cloudy,80,2013-07-01 06:20:00
2:56 AM,73.0,71.1,93,29.85,6.0,ESE,4.6,-,0.00,,Mostly Cloudy,120,2013-07-01 06:56:00
3:16 AM,73.4,71.6,94,29.85,5.0,Calm,Calm,-,N/A,,Overcast,0,2013-07-01 07:16:00
3:43 AM,73.4,71.6,94,29.86,5.0,ESE,9.2,-,N/A,,Overcast,110,2013-07-01 07:43:00
3:56 AM,73.0,70.0,90,29.85,6.0,ESE,6.9,-,N/A,,Overcast,110,2013-07-01 07:56:00
4:21 AM,71.6,69.8,94,29.86,8.0,ESE,5.8,-,N/A,,Overcast,120,2013-07-01 08:21:00
4:56 AM,72.0,69.1,91,29.86,8.0,SE,3.5,-,N/A,,Overcast,130,2013-07-01 08:56:00
5:56 AM,72.0,69.1,91,29.88,10.0,ENE,3.5,-,N/A,,Overcast,60,2013-07-01 09:56:00
6:03 AM,71.6,69.8,94,29.89,9.0,East,5.8,-,N/A,,Overcast,90,2013-07-01 10:03:00
6:56 AM,72.0,69.1,91,29.89,9.0,ESE,4.6,-,N/A,,Overcast,120,2013-07-01 10:56:00
7:56 AM,73.0,69.1,87,29.90,9.0,ESE,4.6,-,N/A,,Overcast,120,2013-07-01 11:56:00
8:56 AM,75.0,70.0,84,29.91,9.0,SSE,4.6,-,N/A,,Overcast,150,2013-07-01 12:56:00
9:56 AM,78.1,68.0,71,29.91,10.0,South,6.9,-,N/A,,Scattered Clouds,170,2013-07-01 13:56:00
10:56 AM,79.0,70.0,74,29.91,10.0,SE,6.9,-,N/A,,Mostly Cloudy,140,2013-07-01 14:56:00
11:56 AM,79.0,70.0,74,29.92,10.0,South,3.5,-,N/A,,Mostly Cloudy,190,2013-07-01 15:56:00
12:56 PM,80.1,69.1,69,29.91,10.0,South,6.9,-,N/A,,Scattered Clouds,190,2013-07-01 16:56:00
1:56 PM,77.0,71.1,82,29.91,10.0,SSE,6.9,-,0.00,Rain,Light Rain,160,2013-07-01 17:56:00
2:56 PM,77.0,72.0,84,29.91,10.0,SE,5.8,-,0.01,Rain,Light Rain,130,2013-07-01 18:56:00
2:59 PM,77.0,71.6,83,29.91,10.0,SE,6.9,-,N/A,,Overcast,140,2013-07-01 18:59:00
3:01 PM,77.0,71.6,83,29.91,10.0,SE,8.1,-,N/A,,Overcast,140,2013-07-01 19:01:00
3:56 PM,81.0,71.1,72,29.91,10.0,South,9.2,-,N/A,,Mostly Cloudy,180,2013-07-01 19:56:00
4:56 PM,80.1,71.1,74,29.89,10.0,SE,5.8,-,N/A,,Overcast,140,2013-07-01 20:56:00
5:56 PM,81.0,71.1,72,29.91,10.0,SSE,9.2,-,N/A,,Mostly Cloudy,150,2013-07-01 21:56:00
6:56 PM,78.1,70.0,76,29.92,10.0,SSE,9.2,-,0.00,,Mostly Cloudy,160,2013-07-01 22:56:00
7:56 PM,78.1,71.1,79,29.93,10.0,SSE,8.1,-,N/A,,Mostly Cloudy,160,2013-07-01 23:56:00
8:56 PM,77.0,71.1,82,29.95,10.0,SE,4.6,-,N/A,,Mostly Cloudy,140,2013-07-02 00:56:00
9:56 PM,75.9,71.1,85,29.96,10.0,SSE,8.1,-,N/A,,Mostly Cloudy,160,2013-07-02 01:56:00
10:56 PM,75.9,71.1,85,29.97,10.0,SSE,6.9,-,N/A,,Mostly Cloudy,150,2013-07-02 02:56:00
11:56 PM,75.0,71.1,87,29.98,10.0,ESE,6.9,-,N/A,,Mostly Cloudy,120,2013-07-02 03:56:00